^^
Station Historical Data
Daily Summary for July 16, 2017 Units:  English    Metric   Both
« Previous Day
Next Day »
Daily Weekly Monthly Yearly Custom
  High: Low: Average:
Temperature: 87.0 °F 64.9 °F 76 °F
Dew Point: 67.0 °F 61.6 °F 64.5 °F
Humidity: 94% 45% 70%
Wind Speed: 3.0mph 0.0mph 0.5mph
Wind Gust: 7.0mph - -
Wind- - WSW
Pressure: 30.00 in 29.93 in -
Precipitation: 0.00 in    
Historical Graphs
 
 
Tabular Data for July 16, 2017
Time Temperature Dew Point Pressure Wind Wind Speed Wind Gust Humidity Rainfall Rate (Hourly) Conditions
00:00 69.5 °F 63.1 °F 29.94 in Calm   1.0 mph 80% 0.00 in RA
00:15 69.6 °F 63.5 °F 29.94 in Calm   2.0 mph 81% 0.00 in CLR
00:30 70.3 °F 63.1 °F 29.94 in Calm   3.0 mph 78% 0.00 in CLR
00:45 69.8 °F 63.0 °F 29.94 in Calm     79% 0.00 in CLR
01:00 69.4 °F 63.0 °F 29.94 in Calm   4.0 mph 80% 0.00 in CLR
02:15 68.4 °F 63.4 °F 29.93 in Calm   1.0 mph 84% 0.00 in CLR
02:30 67.6 °F 63.3 °F 29.93 in Calm   1.0 mph 86% 0.00 in CLR
02:45 67.7 °F 63.3 °F 29.93 in Calm     86% 0.00 in CLR
03:00 66.4 °F 63.1 °F 29.93 in Calm     89% 0.00 in CLR
03:15 65.7 °F 62.7 °F 29.93 in Calm     90% 0.00 in CLR
03:30 65.7 °F 63.0 °F 29.93 in Calm   1.0 mph 91% 0.00 in CLR
03:45 66.6 °F 63.6 °F 29.93 in Calm   1.0 mph 90% 0.00 in CLR
04:00 66.6 °F 63.6 °F 29.93 in Calm   1.0 mph 90% 0.00 in CLR
04:15 66.5 °F 63.5 °F 29.93 in Calm   1.0 mph 90% 0.00 in CLR
04:30 66.6 °F 63.6 °F 29.93 in Calm   1.0 mph 90% 0.00 in CLR
04:45 66.6 °F 63.6 °F 29.94 in Calm   1.0 mph 90% 0.00 in CLR
05:00 66.4 °F 63.7 °F 29.94 in Calm   1.0 mph 91% 0.00 in CLR
05:15 66.6 °F 63.9 °F 29.94 in Calm   2.0 mph 91% 0.00 in CLR
05:45 65.4 °F 63.0 °F 29.95 in Calm     92% 0.00 in CLR
06:00 64.9 °F 62.8 °F 29.95 in Calm     93% 0.00 in CLR
06:15 64.9 °F 62.8 °F 29.95 in Calm     93% 0.00 in SKC
06:30 65.3 °F 63.5 °F 29.96 in Calm     94% 0.00 in SKC
06:45 65.7 °F 63.9 °F 29.96 in Calm     94% 0.00 in SKC
07:00 66.0 °F 64.2 °F 29.97 in Calm     94% 0.00 in SKC
07:15 66.4 °F 64.6 °F 29.97 in Calm   1.0 mph 94% 0.00 in SKC
07:30 67.1 °F 65.0 °F 29.97 in NW 1.0 mph 3.0 mph 93% 0.00 in SKC
07:45 68.1 °F 65.6 °F 29.98 in Calm   2.0 mph 92% 0.00 in SKC
08:00 69.4 °F 65.7 °F 29.98 in Calm   3.0 mph 88% 0.00 in SKC
08:15 70.4 °F 65.7 °F 29.98 in West 1.0 mph 4.0 mph 85% 0.00 in SKC
08:30 71.5 °F 66.1 °F 29.98 in Calm   3.0 mph 83% 0.00 in SKC
08:45 72.0 °F 65.1 °F 29.98 in North 1.0 mph 4.0 mph 79% 0.00 in SKC
09:00 73.0 °F 65.4 °F 29.97 in Calm   4.0 mph 77% 0.00 in SKC
09:15 73.4 °F 65.0 °F 29.97 in Calm   3.0 mph 75% 0.00 in CLR
09:45 74.8 °F 64.8 °F 29.97 in WNW 2.0 mph 4.0 mph 71% 0.00 in CLR
10:00 76.2 °F 65.7 °F 29.97 in Calm   5.0 mph 70% 0.00 in CLR
10:15 76.5 °F 64.7 °F 29.97 in Calm   5.0 mph 67% 0.00 in CLR
10:30 76.5 °F 64.3 °F 29.98 in Calm   4.0 mph 66% 0.00 in CLR
10:45 78.3 °F 62.8 °F 29.97 in NNW 1.0 mph 3.0 mph 59% 0.00 in CLR
11:00 78.5 °F 63.0 °F 29.98 in WSW 1.0 mph 5.0 mph 59% 0.00 in CLR
11:15 79.2 °F 62.7 °F 29.97 in WSW 1.0 mph 5.0 mph 57% 0.00 in FEW
11:30 78.7 °F 62.7 °F 29.98 in WNW 1.0 mph 4.0 mph 58% 0.00 in FEW
11:45 80.1 °F 64.5 °F 29.97 in NW 1.0 mph 4.0 mph 59% 0.00 in FEW
12:00 79.9 °F 64.3 °F 29.96 in North 1.0 mph 4.0 mph 59% 0.00 in FEW
12:15 81.4 °F 64.7 °F 29.96 in Calm   5.0 mph 57% 0.00 in SCT
12:30 81.9 °F 66.2 °F 29.96 in WSW 1.0 mph 5.0 mph 59% 0.00 in SCT
12:45 82.8 °F 64.0 °F 29.96 in Calm   3.0 mph 53% 0.00 in SCT
13:00 82.8 °F 66.5 °F 29.96 in Calm   6.0 mph 58% 0.00 in SCT
13:15 82.9 °F 65.0 °F 29.96 in SW 2.0 mph 6.0 mph 55% 0.00 in SCT
13:30 82.9 °F 62.9 °F 29.95 in SSW 1.0 mph 6.0 mph 51% 0.00 in SCT
13:45 84.0 °F 64.5 °F 29.95 in SW 1.0 mph 5.0 mph 52% 0.00 in SCT
14:00 83.4 °F 63.4 °F 29.95 in WNW 1.0 mph 5.0 mph 51% 0.00 in SCT
14:15 83.6 °F 62.4 °F 29.95 in SE 2.0 mph 4.0 mph 49% 0.00 in SCT
14:30 83.3 °F 61.6 °F 29.95 in Calm   3.0 mph 48% 0.00 in SCT
14:45 85.8 °F 62.0 °F 29.95 in Calm   3.0 mph 45% 0.00 in SCT
15:00 85.4 °F 62.3 °F 29.95 in SSW 2.0 mph 5.0 mph 46% 0.00 in SCT
15:15 84.9 °F 64.2 °F 29.95 in Calm   4.0 mph 50% 0.00 in SCT
15:30 84.8 °F 64.1 °F 29.95 in West 1.0 mph 6.0 mph 50% 0.00 in SCT
15:45 84.7 °F 62.8 °F 29.95 in West 1.0 mph 5.0 mph 48% 0.00 in SCT
16:00 85.2 °F 64.5 °F 29.94 in WSW 1.0 mph 7.0 mph 50% 0.00 in SCT
16:15 86.6 °F 64.6 °F 29.94 in South 2.0 mph 6.0 mph 48% 0.00 in SCT
16:30 85.4 °F 64.7 °F 29.94 in NW 1.0 mph 5.0 mph 50% 0.00 in SCT
16:45 86.2 °F 63.0 °F 29.94 in SW 1.0 mph 6.0 mph 46% 0.00 in SCT
17:00 87.0 °F 64.9 °F 29.94 in SW 1.0 mph 4.0 mph 48% 0.00 in SCT
17:15 86.5 °F 64.5 °F 29.94 in Calm   4.0 mph 48% 0.00 in SCT
17:30 86.3 °F 66.6 °F 29.94 in SW 1.0 mph 6.0 mph 52% 0.00 in SCT
17:45 86.6 °F 66.9 °F 29.93 in SW 2.0 mph 7.0 mph 52% 0.00 in SCT
18:00 86.1 °F 66.4 °F 29.93 in SSW 2.0 mph 6.0 mph 52% 0.00 in SCT
18:15 85.6 °F 67.0 °F 29.94 in Calm   6.0 mph 54% 0.00 in SCT
18:30 85.2 °F 66.7 °F 29.94 in Calm   4.0 mph 54% 0.00 in SCT
18:45 85.0 °F 67.0 °F 29.94 in Calm   2.0 mph 55% 0.00 in SCT
19:00 82.9 °F 66.1 °F 29.94 in SW 1.0 mph 6.0 mph 57% 0.00 in SCT
19:15 82.9 °F 65.6 °F 29.94 in SW 1.0 mph 5.0 mph 56% 0.00 in FEW
19:30 82.3 °F 66.0 °F 29.95 in Calm   5.0 mph 58% 0.00 in FEW
19:45 81.0 °F 65.8 °F 29.95 in WSW 1.0 mph 6.0 mph 60% 0.00 in FEW
20:00 79.3 °F 65.6 °F 29.96 in Calm   4.0 mph 63% 0.00 in FEW
20:15 78.0 °F 66.1 °F 29.96 in Calm   5.0 mph 67% 0.00 in FEW
20:30 77.1 °F 66.1 °F 29.96 in Calm   5.0 mph 69% 0.00 in FEW
20:45 76.4 °F 65.9 °F 29.97 in SSW 1.0 mph 5.0 mph 70% 0.00 in FEW
21:00 75.8 °F 65.7 °F 29.97 in SSW 1.0 mph 4.0 mph 71% 0.00 in FEW
21:15 75.3 °F 66.0 °F 29.98 in Calm   4.0 mph 73% 0.00 in FEW
21:30 75.0 °F 66.1 °F 29.99 in SW 1.0 mph 5.0 mph 74% 0.00 in FEW
21:45 74.9 °F 66.1 °F 29.99 in Calm   3.0 mph 74% 0.00 in FEW
22:00 74.9 °F 66.1 °F 29.99 in SW 3.0 mph 5.0 mph 74% 0.00 in FEW
22:15 74.9 °F 66.0 °F 30.00 in SW 1.0 mph 4.0 mph 74% 0.00 in FEW
22:30 74.6 °F 65.8 °F 29.99 in SW 1.0 mph 6.0 mph 74% 0.00 in FEW
22:45 74.3 °F 65.9 °F 30.00 in SSW 1.0 mph 4.0 mph 75% 0.00 in FEW
23:00 73.9 °F 65.9 °F 30.00 in South 1.0 mph 3.0 mph 76% 0.00 in FEW
23:15 73.8 °F 65.8 °F 30.00 in Calm   4.0 mph 76% 0.00 in FEW
23:30 73.6 °F 65.6 °F 30.00 in Calm   4.0 mph 76% 0.00 in FEW
23:45 73.3 °F 65.3 °F 30.00 in Calm   4.0 mph 76% 0.00 in FEW
TarryTown NY Weather
Compliments of Weather Underground - 1.5 mb